Time;durP1;ratioP1;P1;durP2;ratioP2;P2;SDS_P1;SDS_P2;PMS_P1;PMS_P2;Temp;Humidity;BMP_temperature;BMP_pressure;BME280_temperature;BME280_humidity;BME280_pressure;Samples;Min_cycle;Max_cycle;Signal;HPM_P1;HPM_P2
2022/03/04 00:01:09;;;;;;;20.50;14.27;;;0.80;99.90;;;;;;5987916;24;20529;-69
2022/03/04 00:03:38;;;;;;;19.97;14.57;;;0.80;99.90;;;;;;5986633;23;20434;-69
2022/03/04 00:06:07;;;;;;;20.30;12.77;;;0.80;99.90;;;;;;5987742;24;20411;-69
2022/03/04 00:08:35;;;;;;;18.93;12.57;;;0.80;99.90;;;;;;5986841;24;20419;-68
2022/03/04 00:11:03;;;;;;;17.20;11.87;;;0.80;99.90;;;;;;5987039;24;20763;-69
2022/03/04 00:13:33;;;;;;;17.23;11.43;;;0.80;99.90;;;;;;5976419;23;20446;-69
2022/03/04 00:16:03;;;;;;;17.10;12.83;;;0.70;99.90;;;;;;5978709;24;20799;-69
2022/03/04 00:18:31;;;;;;;15.63;11.83;;;0.60;99.90;;;;;;5977108;24;20501;-69
2022/03/04 00:21:01;;;;;;;16.83;12.00;;;0.70;99.90;;;;;;5953740;24;20461;-69
2022/03/04 00:23:30;;;;;;;19.00;13.07;;;0.70;99.90;;;;;;5986779;24;20438;-69
2022/03/04 00:25:58;;;;;;;22.20;11.93;;;0.60;99.90;;;;;;5975609;24;20431;-69
2022/03/04 00:28:27;;;;;;;15.80;11.83;;;0.60;99.90;;;;;;5986265;24;20442;-69
2022/03/04 00:30:56;;;;;;;19.57;11.90;;;0.60;99.90;;;;;;5978908;24;20919;-69
2022/03/04 00:33:25;;;;;;;18.20;13.40;;;0.60;99.90;;;;;;5989400;24;20453;-68
2022/03/04 00:35:55;;;;;;;16.80;11.20;;;0.60;99.90;;;;;;5978025;23;20538;-69
2022/03/04 00:38:23;;;;;;;17.03;11.90;;;0.60;99.90;;;;;;5987738;24;20414;-69
2022/03/04 00:40:50;;;;;;;17.93;12.27;;;0.60;99.90;;;;;;5986167;24;20443;-69
2022/03/04 00:43:18;;;;;;;17.33;12.10;;;0.60;99.90;;;;;;5987984;24;20435;-69
2022/03/04 00:45:46;;;;;;;18.70;12.87;;;0.60;99.90;;;;;;5977951;23;20458;-69
2022/03/04 00:48:14;;;;;;;18.13;12.33;;;0.60;99.90;;;;;;5988050;24;20414;-69
2022/03/04 00:50:44;;;;;;;16.50;11.90;;;0.60;99.90;;;;;;5986940;24;20501;-69
2022/03/04 00:53:11;;;;;;;20.90;13.77;;;0.60;99.90;;;;;;5987355;24;20482;-69
2022/03/04 00:55:39;;;;;;;20.83;12.90;;;0.50;99.90;;;;;;5979326;23;20542;-69
2022/03/04 00:58:09;;;;;;;19.43;13.60;;;0.60;99.90;;;;;;5986592;24;20436;-69
2022/03/04 01:00:37;;;;;;;22.00;13.20;;;0.60;99.90;;;;;;5985940;24;20435;-69
2022/03/04 01:03:06;;;;;;;19.17;12.97;;;0.70;99.90;;;;;;5987368;24;20459;-69
2022/03/04 01:05:34;;;;;;;18.60;13.70;;;0.70;99.90;;;;;;5977851;23;20491;-69
2022/03/04 01:08:03;;;;;;;19.50;12.70;;;0.60;99.90;;;;;;5987236;24;20562;-69
2022/03/04 01:10:31;;;;;;;24.47;13.20;;;0.60;99.90;;;;;;5977943;24;20425;-69
2022/03/04 01:12:59;;;;;;;19.70;12.80;;;0.60;99.90;;;;;;5990186;24;20430;-70
2022/03/04 01:15:27;;;;;;;25.73;13.93;;;0.60;99.90;;;;;;5980723;23;20450;-69
2022/03/04 01:17:55;;;;;;;19.40;13.00;;;0.70;99.90;;;;;;5980691;24;20426;-69
2022/03/04 01:20:23;;;;;;;20.73;13.33;;;0.70;99.90;;;;;;5980637;24;20814;-69
2022/03/04 01:22:51;;;;;;;19.30;13.63;;;0.60;99.90;;;;;;5986095;24;20457;-69
2022/03/04 01:25:20;;;;;;;20.90;13.17;;;0.60;99.90;;;;;;5980661;23;20537;-69
2022/03/04 01:27:48;;;;;;;23.33;14.40;;;0.60;99.90;;;;;;5985532;24;20422;-69
2022/03/04 01:30:18;;;;;;;26.27;15.70;;;0.60;99.90;;;;;;5987043;24;20422;-69
2022/03/04 01:32:47;;;;;;;20.90;13.07;;;0.60;99.90;;;;;;5987809;24;20548;-69
2022/03/04 01:35:14;;;;;;;22.57;14.60;;;0.60;99.90;;;;;;5979063;23;20469;-69
2022/03/04 01:37:43;;;;;;;21.87;14.83;;;0.60;99.90;;;;;;5987350;24;20434;-69
2022/03/04 01:40:12;;;;;;;24.97;14.87;;;0.70;99.90;;;;;;5987154;24;20414;-69
2022/03/04 01:42:42;;;;;;;23.33;14.87;;;0.70;99.90;;;;;;5987234;24;20450;-69
2022/03/04 01:45:11;;;;;;;22.80;13.97;;;0.60;99.90;;;;;;5981058;23;20454;-69
2022/03/04 01:47:42;;;;;;;22.33;14.53;;;0.60;99.90;;;;;;5987521;24;20493;-69
2022/03/04 01:50:11;;;;;;;22.17;14.97;;;0.60;99.90;;;;;;5986522;24;20449;-69
2022/03/04 01:52:39;;;;;;;24.33;14.97;;;0.60;99.90;;;;;;5987002;24;20435;-69
2022/03/04 01:55:09;;;;;;;24.70;15.30;;;0.60;99.90;;;;;;5980079;23;20461;-69
2022/03/04 01:57:37;;;;;;;24.77;15.70;;;0.70;99.90;;;;;;5986672;24;20449;-69
2022/03/04 02:00:10;;;;;;;23.53;14.57;;;0.70;99.90;;;;;;5986125;24;20505;-69
2022/03/04 02:02:38;;;;;;;21.67;13.70;;;0.70;99.90;;;;;;5987011;24;20442;-69
2022/03/04 02:05:06;;;;;;;21.13;13.57;;;0.80;99.90;;;;;;5980393;23;20572;-69
2022/03/04 02:07:35;;;;;;;18.30;12.50;;;0.80;99.90;;;;;;5951816;24;20428;-69
2022/03/04 02:10:03;;;;;;;20.17;13.27;;;0.70;99.90;;;;;;5952112;24;20441;-69
2022/03/04 02:12:30;;;;;;;22.90;13.97;;;0.70;99.90;;;;;;5976483;24;20446;-69
2022/03/04 02:14:58;;;;;;;21.50;13.07;;;0.70;99.90;;;;;;5980260;23;20553;-69
2022/03/04 02:17:28;;;;;;;21.70;13.47;;;0.80;99.90;;;;;;5988028;24;20450;-69
2022/03/04 02:19:57;;;;;;;22.67;14.10;;;0.80;99.90;;;;;;5989140;24;20418;-69
2022/03/04 02:22:26;;;;;;;22.90;13.80;;;0.80;99.90;;;;;;5988354;24;20504;-69
2022/03/04 02:24:56;;;;;;;22.90;14.10;;;0.80;99.90;;;;;;5981464;23;20466;-69
2022/03/04 02:27:24;;;;;;;19.47;12.40;;;0.80;99.90;;;;;;5988826;24;20470;-69
2022/03/04 02:29:52;;;;;;;22.47;13.83;;;0.80;99.90;;;;;;5989681;24;20425;-69
2022/03/04 02:32:20;;;;;;;20.57;13.33;;;0.80;99.90;;;;;;5988881;24;20506;-69
2022/03/04 02:34:48;;;;;;;21.53;13.80;;;0.70;99.90;;;;;;5982221;23;20462;-69
2022/03/04 02:37:16;;;;;;;20.10;12.80;;;0.80;99.90;;;;;;5989708;24;20414;-69
2022/03/04 02:39:45;;;;;;;19.97;12.90;;;0.80;99.90;;;;;;5988248;24;20437;-69
2022/03/04 02:42:13;;;;;;;23.17;14.27;;;0.80;99.90;;;;;;5988242;24;20457;-69
2022/03/04 02:44:41;;;;;;;23.33;13.83;;;0.80;99.90;;;;;;5983354;23;20533;-69
2022/03/04 02:47:09;;;;;;;22.50;13.70;;;0.80;99.90;;;;;;5988133;24;20415;-69
2022/03/04 02:49:37;;;;;;;21.10;14.10;;;0.80;99.90;;;;;;5988241;24;20418;-69
2022/03/04 02:52:05;;;;;;;22.70;13.10;;;0.90;99.90;;;;;;5989003;24;20440;-69
2022/03/04 02:54:33;;;;;;;25.63;14.10;;;0.90;99.90;;;;;;5982433;23;20478;-69
2022/03/04 02:57:02;;;;;;;24.70;14.10;;;0.90;99.90;;;;;;5987428;24;20433;-69
2022/03/04 02:59:30;;;;;;;21.33;12.80;;;0.80;99.90;;;;;;5989074;24;20438;-69
2022/03/04 03:01:58;;;;;;;20.93;12.53;;;0.90;99.90;;;;;;5988617;24;20493;-69
2022/03/04 03:04:26;;;;;;;23.93;13.87;;;0.90;99.90;;;;;;5983606;23;20450;-69
2022/03/04 03:06:54;;;;;;;21.50;13.87;;;0.90;99.90;;;;;;5989098;24;20466;-68
2022/03/04 03:09:22;;;;;;;25.93;15.03;;;0.90;99.90;;;;;;5989566;24;20433;-68
2022/03/04 03:11:50;;;;;;;24.67;14.07;;;0.90;99.90;;;;;;5978857;24;20426;-68
2022/03/04 03:14:19;;;;;;;21.03;12.67;;;0.90;99.90;;;;;;5984294;23;20490;-68
2022/03/04 03:16:47;;;;;;;25.63;14.60;;;0.90;99.90;;;;;;5988345;24;20414;-68
2022/03/04 03:19:15;;;;;;;20.10;13.57;;;0.90;99.90;;;;;;5988881;24;20426;-68
2022/03/04 03:21:43;;;;;;;21.73;13.60;;;0.90;99.90;;;;;;5988684;24;20494;-68
2022/03/04 03:24:11;;;;;;;22.30;12.77;;;0.90;99.90;;;;;;5984632;23;20446;-68
2022/03/04 03:26:39;;;;;;;22.17;13.00;;;0.80;99.90;;;;;;5987950;24;20410;-68
2022/03/04 03:29:07;;;;;;;22.40;13.13;;;0.90;99.90;;;;;;5987650;24;20422;-68
2022/03/04 03:31:36;;;;;;;23.37;12.67;;;0.90;99.90;;;;;;5988400;24;20415;-68
2022/03/04 03:34:04;;;;;;;21.53;12.50;;;0.90;99.90;;;;;;5985913;23;20527;-68
2022/03/04 03:36:32;;;;;;;19.60;12.33;;;0.90;99.90;;;;;;5979593;24;20478;-68
2022/03/04 03:39:00;;;;;;;22.10;13.10;;;1.00;99.90;;;;;;5988749;24;20501;-68
2022/03/04 03:41:28;;;;;;;19.73;12.37;;;0.90;99.90;;;;;;5987291;24;20414;-68
2022/03/04 03:43:56;;;;;;;21.77;12.20;;;0.90;99.90;;;;;;5984898;23;20446;-68
2022/03/04 03:46:24;;;;;;;22.70;13.70;;;0.90;99.90;;;;;;5989042;24;20481;-68
2022/03/04 03:48:53;;;;;;;20.50;12.10;;;0.90;99.90;;;;;;5989134;24;20418;-68
2022/03/04 03:51:21;;;;;;;20.20;12.40;;;1.00;99.90;;;;;;5987574;24;20415;-68
2022/03/04 03:53:49;;;;;;;22.90;12.90;;;0.90;99.90;;;;;;5984720;23;20433;-68
2022/03/04 03:56:17;;;;;;;19.20;11.90;;;0.90;99.90;;;;;;5987666;24;20454;-68
2022/03/04 03:58:45;;;;;;;20.60;13.27;;;0.90;99.90;;;;;;5988278;24;20421;-68
2022/03/04 04:01:13;;;;;;;20.50;12.60;;;0.90;99.90;;;;;;5988241;24;20506;-68
2022/03/04 04:03:41;;;;;;;18.83;12.17;;;0.90;99.90;;;;;;5953327;23;20450;-68
2022/03/04 04:06:10;;;;;;;19.83;12.80;;;0.90;99.90;;;;;;5988793;24;20410;-68
2022/03/04 04:08:38;;;;;;;20.17;13.13;;;0.80;99.90;;;;;;5978743;24;20459;-69
2022/03/04 04:11:06;;;;;;;20.93;12.47;;;0.90;99.90;;;;;;5988445;24;20411;-68
2022/03/04 04:13:34;;;;;;;21.20;11.40;;;0.90;99.90;;;;;;5985753;23;20465;-68
2022/03/04 04:16:02;;;;;;;18.63;12.30;;;0.90;99.90;;;;;;5987758;24;20454;-68
2022/03/04 04:18:30;;;;;;;23.20;13.00;;;0.80;99.90;;;;;;5987521;24;20418;-68
2022/03/04 04:20:58;;;;;;;21.27;13.00;;;0.90;99.90;;;;;;5986950;24;20419;-68
2022/03/04 04:23:28;;;;;;;20.87;12.50;;;0.80;99.90;;;;;;5988561;24;20476;-68
2022/03/04 04:25:55;;;;;;;21.27;13.07;;;0.80;99.90;;;;;;5976772;24;20542;-68
2022/03/04 04:28:25;;;;;;;20.63;12.33;;;0.90;99.90;;;;;;5986499;24;20439;-68
2022/03/04 04:30:53;;;;;;;19.70;12.30;;;0.80;99.90;;;;;;5987287;24;20425;-68
2022/03/04 04:33:21;;;;;;;20.27;13.50;;;0.80;99.90;;;;;;5976088;24;20462;-67
2022/03/04 04:35:52;;;;;;;19.63;12.13;;;0.80;99.90;;;;;;5975894;23;20457;-68
2022/03/04 04:38:20;;;;;;;18.10;11.33;;;0.70;99.90;;;;;;5977111;24;20434;-68
2022/03/04 04:40:50;;;;;;;18.67;12.03;;;0.70;99.90;;;;;;5986856;24;20429;-68
2022/03/04 04:43:17;;;;;;;18.43;11.23;;;0.70;99.90;;;;;;5986324;24;20442;-68
2022/03/04 04:45:45;;;;;;;20.50;12.53;;;0.70;99.90;;;;;;5978364;23;20577;-68
2022/03/04 04:48:13;;;;;;;19.63;11.97;;;0.70;99.90;;;;;;5984807;24;20415;-68
2022/03/04 04:50:41;;;;;;;19.13;11.97;;;0.70;99.90;;;;;;5987685;24;20437;-68
2022/03/04 04:53:09;;;;;;;17.50;11.47;;;0.70;99.90;;;;;;5988318;24;20486;-68
2022/03/04 04:55:37;;;;;;;15.90;11.43;;;0.70;99.90;;;;;;5979072;23;20514;-68
2022/03/04 04:58:06;;;;;;;23.80;11.93;;;0.60;99.90;;;;;;5986143;24;20442;-68
2022/03/04 05:00:34;;;;;;;18.40;11.30;;;0.60;99.90;;;;;;5986746;24;20509;-68
2022/03/04 05:03:02;;;;;;;18.30;11.07;;;0.60;99.90;;;;;;5975982;24;20446;-68
2022/03/04 05:05:31;;;;;;;22.03;10.93;;;0.60;99.90;;;;;;5976230;23;20458;-68
2022/03/04 05:08:02;;;;;;;17.43;10.77;;;0.60;99.90;;;;;;5986767;24;20493;-68
2022/03/04 05:10:31;;;;;;;16.50;10.03;;;0.50;99.90;;;;;;5951209;24;20481;-68
2022/03/04 05:12:59;;;;;;;15.90;11.07;;;0.50;99.90;;;;;;5975735;24;20488;-68
2022/03/04 05:15:28;;;;;;;16.83;10.77;;;0.50;99.90;;;;;;5976720;23;20458;-68
2022/03/04 05:17:56;;;;;;;17.23;10.40;;;0.50;99.90;;;;;;5987552;24;20411;-68
2022/03/04 05:20:24;;;;;;;17.60;10.97;;;0.40;99.90;;;;;;5986722;24;20422;-68
2022/03/04 05:22:52;;;;;;;17.60;10.80;;;0.40;99.90;;;;;;5986964;24;20442;-68
2022/03/04 05:25:20;;;;;;;14.63;9.30;;;0.50;99.90;;;;;;5980217;23;20458;-69
2022/03/04 05:27:48;;;;;;;16.17;10.43;;;0.40;99.90;;;;;;5986773;24;20417;-68
2022/03/04 05:30:16;;;;;;;17.13;9.80;;;0.50;99.90;;;;;;5986700;24;20423;-68
2022/03/04 05:32:46;;;;;;;16.03;9.87;;;0.50;99.90;;;;;;5987127;24;20450;-68
2022/03/04 05:35:14;;;;;;;17.93;10.80;;;0.50;99.90;;;;;;5980416;23;20560;-68
2022/03/04 05:37:42;;;;;;;23.40;11.00;;;0.40;99.90;;;;;;5986072;24;20497;-68
2022/03/04 05:40:10;;;;;;;14.27;10.17;;;0.40;99.90;;;;;;5984047;24;20422;-68
2022/03/04 05:42:38;;;;;;;15.70;10.57;;;0.40;99.90;;;;;;5986349;24;20935;-68
2022/03/04 05:45:07;;;;;;;15.53;10.27;;;0.30;99.90;;;;;;5978336;23;20465;-68
2022/03/04 05:47:35;;;;;;;20.40;10.67;;;0.30;99.90;;;;;;5986090;24;20418;-68
2022/03/04 05:50:05;;;;;;;16.70;10.77;;;0.30;99.90;;;;;;5984186;24;20418;-68
2022/03/04 05:52:33;;;;;;;16.57;10.77;;;0.40;99.90;;;;;;5977282;24;20426;-69
2022/03/04 05:55:01;;;;;;;16.80;10.20;;;0.40;99.90;;;;;;5975112;23;20476;-69
2022/03/04 05:57:28;;;;;;;14.30;10.40;;;0.40;99.90;;;;;;5985645;24;20414;-68
2022/03/04 05:59:58;;;;;;;16.30;10.40;;;0.30;99.90;;;;;;5985066;24;20427;-69
2022/03/04 06:02:27;;;;;;;15.60;10.10;;;0.30;99.90;;;;;;5986594;24;20477;-69
2022/03/04 06:04:55;;;;;;;14.03;10.10;;;0.40;99.90;;;;;;5979495;23;20521;-69
2022/03/04 06:07:24;;;;;;;19.27;11.17;;;0.40;99.90;;;;;;5984874;24;20414;-69
2022/03/04 06:09:52;;;;;;;17.90;11.10;;;0.40;99.90;;;;;;5984162;24;20508;-69
2022/03/04 06:12:20;;;;;;;17.97;10.67;;;0.50;99.90;;;;;;5984005;24;20438;-68
2022/03/04 06:14:48;;;;;;;17.97;11.33;;;0.50;99.90;;;;;;5978526;23;20446;-68
2022/03/04 06:17:17;;;;;;;16.27;10.53;;;0.50;99.90;;;;;;5983003;24;20410;-68
2022/03/04 06:19:45;;;;;;;14.23;9.83;;;0.50;99.90;;;;;;5987045;24;20419;-68
2022/03/04 06:22:13;;;;;;;16.57;10.80;;;0.50;99.90;;;;;;5950021;24;20465;-69
2022/03/04 06:24:42;;;;;;;13.57;9.73;;;0.40;99.90;;;;;;5981615;23;20458;-69
2022/03/04 06:27:10;;;;;;;13.93;9.80;;;0.30;99.90;;;;;;5984834;24;20422;-70
2022/03/04 06:29:38;;;;;;;13.50;9.43;;;0.30;99.90;;;;;;5974065;24;20438;-69
2022/03/04 06:32:06;;;;;;;15.60;9.97;;;0.30;99.90;;;;;;5984976;24;20462;-69
2022/03/04 06:34:35;;;;;;;16.30;10.73;;;0.30;99.90;;;;;;5978268;23;20454;-70
2022/03/04 06:37:03;;;;;;;15.00;10.47;;;0.30;99.90;;;;;;5988725;24;20517;-69
2022/03/04 06:39:31;;;;;;;17.10;10.37;;;0.30;99.90;;;;;;5985017;24;20424;-71
2022/03/04 06:42:06;;;;;;;16.90;10.20;;;0.30;99.90;;;;;;5984609;24;20514;-69
2022/03/04 06:44:35;;;;;;;15.37;10.87;;;0.30;99.90;;;;;;5983157;23;20545;-68
2022/03/04 06:47:03;;;;;;;15.13;10.27;;;0.30;99.90;;;;;;5987086;24;20471;-70
2022/03/04 06:49:31;;;;;;;16.00;10.17;;;0.30;99.90;;;;;;5977467;24;20430;-69
2022/03/04 06:52:00;;;;;;;17.00;11.10;;;0.30;99.90;;;;;;5975254;24;20499;-69
2022/03/04 06:54:28;;;;;;;17.20;10.63;;;0.30;99.90;;;;;;5978868;23;20450;-69
2022/03/04 06:56:55;;;;;;;19.17;9.90;;;0.30;99.90;;;;;;5982591;24;20449;-69
2022/03/04 06:59:25;;;;;;;14.73;9.47;;;0.30;99.90;;;;;;5985602;24;20424;-71
2022/03/04 07:01:53;;;;;;;15.53;10.20;;;0.30;99.90;;;;;;5962140;24;20422;-69
2022/03/04 07:04:21;;;;;;;16.10;10.83;;;0.40;99.90;;;;;;5982879;23;20787;-70
2022/03/04 07:06:49;;;;;;;13.27;9.40;;;0.40;99.90;;;;;;5954788;24;20509;-69
2022/03/04 07:09:17;;;;;;;12.33;9.20;;;0.40;99.90;;;;;;5988883;24;20426;-69
2022/03/04 07:11:45;;;;;;;13.17;8.80;;;0.40;99.90;;;;;;5982743;24;20414;-69
2022/03/04 07:14:12;;;;;;;12.43;8.83;;;0.40;99.90;;;;;;5979599;23;20510;-69
2022/03/04 07:16:42;;;;;;;13.60;8.73;;;0.30;99.90;;;;;;5988109;24;20421;-69
2022/03/04 07:19:10;;;;;;;15.73;9.57;;;0.30;99.90;;;;;;5987147;24;20438;-70
2022/03/04 07:21:38;;;;;;;12.97;8.00;;;0.30;99.90;;;;;;5987689;24;20501;-69
2022/03/04 07:24:07;;;;;;;14.60;9.60;;;0.30;99.90;;;;;;5983737;23;20461;-69
2022/03/04 07:26:35;;;;;;;16.70;9.23;;;0.30;99.90;;;;;;5987257;24;20453;-69
2022/03/04 07:29:03;;;;;;;12.70;8.60;;;0.30;99.90;;;;;;5988183;24;20470;-70
2022/03/04 07:31:31;;;;;;;11.30;7.97;;;0.30;99.90;;;;;;5975882;24;20430;-69
2022/03/04 07:34:00;;;;;;;10.77;7.90;;;0.30;99.90;;;;;;5986169;23;20457;-69
2022/03/04 07:36:28;;;;;;;13.47;8.70;;;0.40;99.90;;;;;;5988386;24;20410;-69
2022/03/04 07:38:57;;;;;;;13.83;8.67;;;0.40;99.90;;;;;;5986810;24;20842;-69
2022/03/04 07:41:25;;;;;;;14.13;8.67;;;0.30;99.90;;;;;;5951518;24;20434;-70
2022/03/04 07:43:53;;;;;;;12.70;8.00;;;0.40;99.90;;;;;;5983740;23;20454;-70
2022/03/04 07:46:22;;;;;;;10.87;7.63;;;0.40;99.90;;;;;;5986679;24;20434;-69
2022/03/04 07:48:50;;;;;;;12.13;7.70;;;0.40;99.90;;;;;;5975696;24;20478;-70
2022/03/04 07:51:19;;;;;;;11.50;7.33;;;0.40;99.90;;;;;;5986137;24;20510;-70
2022/03/04 07:53:47;;;;;;;7.67;6.07;;;0.50;99.90;;;;;;5985172;23;20436;-69
2022/03/04 07:56:15;;;;;;;9.87;7.03;;;0.50;99.90;;;;;;5989613;24;20477;-70
2022/03/04 07:58:43;;;;;;;10.93;7.17;;;0.60;99.90;;;;;;5987523;24;20414;-70
2022/03/04 08:01:11;;;;;;;15.50;7.10;;;0.50;99.90;;;;;;5985478;24;20414;-68
2022/03/04 08:03:54;;;;;;;15.80;8.80;;;0.60;99.90;;;;;;5982109;23;20542;-69
2022/03/04 08:06:24;;;;;;;13.20;8.23;;;0.60;99.90;;;;;;5985795;24;20438;-68
2022/03/04 08:08:51;;;;;;;11.03;7.33;;;0.60;99.90;;;;;;5951592;24;20430;-68
2022/03/04 08:11:19;;;;;;;10.60;7.93;;;0.60;99.90;;;;;;5983794;24;20505;-68
2022/03/04 08:13:47;;;;;;;10.97;7.40;;;0.60;99.90;;;;;;5982954;23;20462;-68
2022/03/04 08:16:15;;;;;;;12.07;7.43;;;0.70;99.90;;;;;;5983591;24;20471;-68
2022/03/04 08:18:43;;;;;;;10.80;7.23;;;0.70;99.90;;;;;;5985481;24;20421;-68
2022/03/04 08:21:12;;;;;;;10.13;7.20;;;0.70;99.90;;;;;;5986182;24;20470;-68
2022/03/04 08:23:41;;;;;;;12.80;7.67;;;0.70;99.90;;;;;;5985945;23;20466;-68
2022/03/04 08:26:09;;;;;;;10.40;7.03;;;0.70;99.90;;;;;;5985675;24;20525;-67
2022/03/04 08:28:37;;;;;;;11.57;7.87;;;0.80;99.90;;;;;;5986679;24;20419;-69
2022/03/04 08:31:10;;;;;;;9.50;6.87;;;0.80;99.90;;;;;;5985509;24;20415;-68
2022/03/04 08:33:40;;;;;;;10.80;7.23;;;0.80;99.90;;;;;;5984181;23;20449;-69
2022/03/04 08:36:09;;;;;;;11.13;7.40;;;0.90;99.90;;;;;;5986278;24;20414;-69
2022/03/04 08:38:37;;;;;;;12.23;7.97;;;0.90;99.90;;;;;;5986072;24;20498;-69
2022/03/04 08:41:07;;;;;;;10.50;7.20;;;0.90;99.90;;;;;;5986223;24;20419;-69
2022/03/04 08:43:35;;;;;;;10.50;7.43;;;0.90;99.90;;;;;;5975570;23;20452;-69
2022/03/04 08:46:03;;;;;;;13.13;7.17;;;1.00;99.90;;;;;;5984922;24;20435;-68
2022/03/04 08:48:31;;;;;;;10.53;7.60;;;1.00;99.90;;;;;;5978014;24;20419;-69
2022/03/04 08:51:00;;;;;;;11.67;7.93;;;1.10;99.90;;;;;;5985881;24;20496;-68
2022/03/04 08:53:28;;;;;;;9.87;7.40;;;1.10;99.90;;;;;;5986682;24;20438;-69
2022/03/04 08:55:56;;;;;;;11.47;7.50;;;1.10;99.90;;;;;;5975724;24;20433;-68
2022/03/04 08:58:25;;;;;;;10.70;7.07;;;1.20;99.90;;;;;;5986021;24;20478;-68
2022/03/04 09:00:53;;;;;;;10.67;7.27;;;1.30;99.90;;;;;;5986197;24;20422;-68
2022/03/04 09:03:21;;;;;;;8.93;6.03;;;1.30;99.90;;;;;;5987613;24;20745;-68
2022/03/04 09:05:51;;;;;;;8.30;6.10;;;1.40;99.90;;;;;;5976865;23;20458;-69
2022/03/04 09:08:19;;;;;;;11.00;7.00;;;1.40;99.90;;;;;;5985230;24;20416;-69
2022/03/04 09:10:46;;;;;;;9.43;7.10;;;1.40;99.90;;;;;;5986668;24;20429;-69
2022/03/04 09:13:14;;;;;;;11.00;7.23;;;1.50;99.90;;;;;;5987470;24;20521;-69
2022/03/04 09:15:44;;;;;;;8.33;6.67;;;1.50;99.90;;;;;;5977341;23;20458;-68
2022/03/04 09:18:13;;;;;;;9.60;6.70;;;1.50;99.90;;;;;;5985489;24;20767;-68
2022/03/04 09:20:41;;;;;;;10.23;6.97;;;1.60;99.90;;;;;;5984614;24;20418;-69
2022/03/04 09:23:09;;;;;;;10.23;6.90;;;1.60;99.90;;;;;;5984098;24;20434;-68
2022/03/04 09:25:38;;;;;;;9.67;6.87;;;1.70;99.90;;;;;;5975090;23;20469;-68
2022/03/04 09:28:06;;;;;;;10.93;7.50;;;1.70;99.90;;;;;;5983823;24;20446;-69
2022/03/04 09:30:36;;;;;;;9.40;7.07;;;1.70;99.90;;;;;;5984134;24;20414;-68
2022/03/04 09:33:05;;;;;;;12.33;7.63;;;1.80;99.90;;;;;;5985813;24;20541;-68
2022/03/04 09:35:33;;;;;;;12.10;7.77;;;1.80;99.90;;;;;;5974480;24;20527;-67
2022/03/04 09:38:01;;;;;;;12.10;7.70;;;1.90;99.90;;;;;;5984772;24;20415;-68
2022/03/04 09:40:29;;;;;;;10.90;6.87;;;1.90;99.90;;;;;;5986193;24;20451;-68
2022/03/04 09:42:58;;;;;;;10.60;7.57;;;1.90;99.90;;;;;;5985675;24;20541;-69
2022/03/04 09:45:26;;;;;;;11.43;7.50;;;2.00;99.90;;;;;;5976013;23;20513;-69
2022/03/04 09:47:54;;;;;;;8.80;7.10;;;1.90;99.90;;;;;;5976979;24;20501;-69
2022/03/04 09:50:23;;;;;;;10.00;7.80;;;2.00;99.90;;;;;;5984012;24;20450;-69
2022/03/04 09:52:51;;;;;;;10.50;7.20;;;1.90;99.90;;;;;;5974400;24;20455;-69
2022/03/04 09:55:23;;;;;;;11.97;7.27;;;2.00;99.90;;;;;;5977312;23;20458;-68
2022/03/04 09:57:51;;;;;;;8.33;6.43;;;2.10;99.90;;;;;;5976699;24;20458;-68
2022/03/04 10:00:18;;;;;;;8.50;6.70;;;2.20;99.90;;;;;;5985815;24;20418;-68
2022/03/04 10:02:47;;;;;;;10.10;6.17;;;2.30;99.90;;;;;;5974260;24;20680;-68
2022/03/04 10:05:15;;;;;;;8.33;6.30;;;2.40;99.90;;;;;;5978455;23;20461;-68
2022/03/04 10:07:46;;;;;;;9.27;6.47;;;2.40;99.90;;;;;;5977352;24;20494;-69
2022/03/04 10:10:17;;;;;;;9.40;6.80;;;2.50;99.90;;;;;;5985232;24;20445;-68
2022/03/04 10:12:50;;;;;;;7.27;6.10;;;2.50;99.90;;;;;;5977902;24;20449;-68
2022/03/04 10:15:19;;;;;;;9.20;7.07;;;2.50;99.90;;;;;;5977625;23;20450;-69
2022/03/04 10:17:59;;;;;;;9.27;6.40;;;2.50;99.90;;;;;;5986612;24;20407;-69
2022/03/04 10:20:43;;;;;;;10.03;6.80;;;2.50;99.90;;;;;;5976513;24;20426;-70
2022/03/04 10:23:24;;;;;;;8.90;6.70;;;2.50;99.90;;;;;;5949460;24;20511;-69
2022/03/04 10:25:54;;;;;;;9.17;6.63;;;2.60;99.90;;;;;;5974514;23;20454;-69
2022/03/04 10:28:24;;;;;;;10.23;7.43;;;2.60;99.90;;;;;;5985345;24;20471;-69
2022/03/04 10:30:53;;;;;;;7.80;6.40;;;2.70;99.90;;;;;;5985920;24;20431;-69
2022/03/04 10:33:23;;;;;;;9.63;6.07;;;2.80;99.90;;;;;;5975950;24;20545;-69
2022/03/04 10:36:07;;;;;;;8.70;5.93;;;2.80;99.90;;;;;;5973907;23;20806;-68
2022/03/04 10:38:37;;;;;;;7.90;5.90;;;2.90;99.90;;;;;;5984872;24;20442;-69
2022/03/04 10:41:22;;;;;;;6.00;5.03;;;3.00;99.90;;;;;;5987718;24;20413;-68
2022/03/04 10:43:51;;;;;;;5.53;4.70;;;3.20;99.90;;;;;;5985238;23;20434;-68
2022/03/04 10:46:19;;;;;;;5.53;4.93;;;3.30;99.90;;;;;;5973688;24;20908;-69
2022/03/04 10:48:55;;;;;;;5.77;5.07;;;3.40;99.90;;;;;;5986441;24;20509;-69
2022/03/04 10:51:37;;;;;;;7.60;5.10;;;3.60;99.90;;;;;;5986460;24;20418;-69
2022/03/04 10:54:18;;;;;;;6.47;5.03;;;3.70;99.90;;;;;;5982826;23;20486;-69
2022/03/04 10:56:51;;;;;;;6.43;5.47;;;3.80;99.90;;;;;;5986272;24;20417;-70
2022/03/04 10:59:20;;;;;;;7.40;5.70;;;3.90;99.90;;;;;;5953174;24;20451;-69
2022/03/04 11:01:49;;;;;;;7.40;5.67;;;4.00;99.90;;;;;;5986408;24;20493;-68
2022/03/04 11:04:18;;;;;;;6.10;5.03;;;4.10;99.90;;;;;;5982310;23;20477;-68
2022/03/04 11:06:47;;;;;;;5.33;4.83;;;4.20;99.90;;;;;;5986021;24;20502;-69
2022/03/04 11:09:23;;;;;;;6.37;4.87;;;4.30;99.90;;;;;;5987175;24;20407;-68
2022/03/04 11:11:53;;;;;;;6.20;4.67;;;4.50;99.90;;;;;;5986685;24;20422;-69
2022/03/04 11:14:22;;;;;;;7.17;5.10;;;4.30;99.90;;;;;;5983623;23;20454;-68
2022/03/04 11:16:50;;;;;;;5.10;4.53;;;4.50;99.90;;;;;;5987996;24;20675;-69
2022/03/04 11:19:19;;;;;;;6.37;5.20;;;4.70;99.90;;;;;;5987280;24;20414;-69
2022/03/04 11:21:47;;;;;;;5.83;5.13;;;4.80;99.90;;;;;;5987456;24;20425;-68
2022/03/04 11:24:16;;;;;;;6.40;5.40;;;4.90;99.90;;;;;;5983616;23;20477;-69
2022/03/04 11:26:45;;;;;;;5.80;5.13;;;4.70;99.90;;;;;;5987020;24;20447;-70
2022/03/04 11:29:35;;;;;;;7.57;4.93;;;4.80;99.90;;;;;;5976865;24;20540;-70
2022/03/04 11:32:06;;;;;;;7.83;4.97;;;5.00;99.90;;;;;;5987403;24;20497;-70
2022/03/04 11:34:35;;;;;;;5.83;5.23;;;5.20;99.90;;;;;;5982411;23;20553;-70
2022/03/04 11:37:04;;;;;;;6.57;5.33;;;5.40;99.90;;;;;;5988159;24;20407;-70
2022/03/04 11:40:04;;;;;;;6.10;4.80;;;5.40;99.90;;;;;;5978542;24;20426;-72
2022/03/04 11:42:41;;;;;;;7.97;5.40;;;5.60;99.90;;;;;;5978585;24;20506;-70
2022/03/04 11:45:11;;;;;;;5.83;4.50;;;5.80;99.90;;;;;;5980298;23;20512;-70
2022/03/04 11:47:41;;;;;;;5.10;4.60;;;5.80;99.90;;;;;;5987289;24;20582;-70
2022/03/04 11:50:34;;;;;;;7.73;5.17;;;5.90;99.90;;;;;;5986891;24;20434;-70
2022/03/04 11:53:18;;;;;;;6.37;5.43;;;6.00;99.90;;;;;;5953988;24;20453;-70
2022/03/04 11:56:16;;;;;;;5.63;4.70;;;6.10;99.90;;;;;;5978659;23;20478;-70
2022/03/04 11:59:18;;;;;;;5.17;4.50;;;6.40;99.90;;;;;;5985325;24;20458;-68
2022/03/04 12:01:46;;;;;;;5.07;4.37;;;6.70;99.90;;;;;;5986649;24;20410;-67
2022/03/04 12:04:16;;;;;;;5.33;4.27;;;6.90;99.90;;;;;;5981362;23;20458;-68
2022/03/04 12:07:05;;;;;;;4.07;3.77;;;7.10;99.90;;;;;;5952511;24;20446;-69
2022/03/04 12:09:33;;;;;;;6.53;4.03;;;7.30;99.90;;;;;;5976484;24;20921;-69
2022/03/04 12:12:16;;;;;;;6.27;4.53;;;7.40;99.90;;;;;;5975404;24;20459;-69
2022/03/04 12:14:48;;;;;;;4.20;3.80;;;7.80;99.90;;;;;;5951816;24;20458;-69
2022/03/04 12:17:17;;;;;;;6.67;4.30;;;7.80;99.90;;;;;;5984556;24;20836;-69
2022/03/04 12:19:45;;;;;;;5.20;4.67;;;8.20;99.90;;;;;;5984132;24;20423;-70
2022/03/04 12:22:15;;;;;;;7.33;4.90;;;8.80;99.90;;;;;;5985982;24;20441;-69
2022/03/04 12:24:53;;;;;;;4.20;3.80;;;9.50;99.90;;;;;;5980356;23;20482;-69
2022/03/04 12:27:36;;;;;;;3.77;3.30;;;10.50;99.90;;;;;;5983057;24;20430;-69
2022/03/04 12:30:18;;;;;;;4.20;3.80;;;11.50;99.90;;;;;;5985516;24;20414;-69
2022/03/04 12:32:51;;;;;;;4.30;3.90;;;12.60;99.90;;;;;;5984482;24;20446;-70
2022/03/04 12:35:20;;;;;;;4.10;3.70;;;14.20;99.90;;;;;;5976266;23;20706;-70
2022/03/04 12:37:48;;;;;;;6.70;4.83;;;16.00;99.90;;;;;;5985761;24;20459;-71
2022/03/04 12:40:19;;;;;;;3.93;3.47;;;18.40;99.90;;;;;;5981760;24;20497;-71
2022/03/04 12:42:58;;;;;;;5.47;4.00;;;20.50;96.20;;;;;;5975025;24;20777;-70
2022/03/04 12:45:39;;;;;;;6.90;3.83;;;22.40;88.60;;;;;;5977248;23;20450;-70
2022/03/04 12:48:09;;;;;;;3.50;3.20;;;22.90;76.60;;;;;;5968707;24;20529;-72
2022/03/04 12:50:37;;;;;;;3.23;3.03;;;22.80;73.80;;;;;;5979209;24;20453;-72
2022/03/04 12:53:18;;;;;;;4.40;4.10;;;23.00;70.80;;;;;;5986364;24;20462;-72
2022/03/04 12:55:49;;;;;;;4.10;3.80;;;23.30;68.60;;;;;;5972839;23;20457;-71